Time;durP1;ratioP1;P1;durP2;ratioP2;P2;SDS_P1;SDS_P2;PMS_P1;PMS_P2;Temp;Humidity;BMP_temperature;BMP_pressure;BME280_temperature;BME280_humidity;BME280_pressure;Samples;Min_cycle;Max_cycle;Signal;HPM_P1;HPM_P2
2024/01/17 00:02:14;;;;;;;13.77;11.77;;;-1.60;78.10;;;;;;6266465;28;20234;-77
2024/01/17 00:05:17;;;;;;;17.63;13.63;;;-1.70;78.00;;;;;;6253246;28;20235;-77
2024/01/17 00:08:20;;;;;;;15.30;12.93;;;-1.80;78.10;;;;;;6265367;28;20245;-78
2024/01/17 00:11:24;;;;;;;18.47;12.37;;;-1.70;78.20;;;;;;6257339;28;20295;-80
2024/01/17 00:14:28;;;;;;;14.10;12.47;;;-1.70;77.90;;;;;;6264902;28;20246;-77
2024/01/17 00:17:31;;;;;;;17.57;12.40;;;-1.70;77.60;;;;;;6266585;28;20238;-76
2024/01/17 00:20:38;;;;;;;14.53;11.93;;;-1.70;77.30;;;;;;6255706;28;20998;-76
2024/01/17 00:23:41;;;;;;;13.53;11.20;;;-1.70;77.40;;;;;;6257953;28;20242;-76
2024/01/17 00:26:44;;;;;;;15.73;12.37;;;-1.80;77.30;;;;;;6236036;28;20242;-77
2024/01/17 00:29:48;;;;;;;17.30;12.43;;;-1.80;77.20;;;;;;6238019;28;20237;-77
2024/01/17 00:32:52;;;;;;;12.93;11.63;;;-1.90;77.20;;;;;;6240923;28;20706;-79
2024/01/17 00:35:55;;;;;;;14.60;11.07;;;-1.90;77.10;;;;;;6237303;28;20230;-79
2024/01/17 00:38:58;;;;;;;12.77;11.50;;;-1.90;77.10;;;;;;6228565;28;20226;-79
2024/01/17 00:42:01;;;;;;;14.37;12.13;;;-2.00;77.10;;;;;;6233620;28;20247;-78
2024/01/17 00:45:08;;;;;;;17.70;11.60;;;-2.10;77.30;;;;;;6222196;28;20253;-78
2024/01/17 00:48:13;;;;;;;15.90;11.90;;;-2.10;77.40;;;;;;6238188;28;20258;-78
2024/01/17 00:51:22;;;;;;;13.10;11.43;;;-2.10;77.20;;;;;;6235264;28;20234;-80
2024/01/17 00:54:26;;;;;;;12.50;11.20;;;-2.10;77.50;;;;;;6218946;28;20283;-79
2024/01/17 00:57:29;;;;;;;16.13;11.63;;;-2.20;77.50;;;;;;6210947;28;20252;-79
2024/01/17 01:00:36;;;;;;;13.83;12.37;;;-2.30;77.70;;;;;;6228922;28;20669;-78
2024/01/17 01:03:39;;;;;;;16.00;12.13;;;-2.30;77.90;;;;;;6229938;28;20235;-79
2024/01/17 01:06:42;;;;;;;13.50;11.60;;;-2.40;77.80;;;;;;6237393;28;20238;-79
2024/01/17 01:09:46;;;;;;;15.03;11.67;;;-2.40;77.80;;;;;;6206645;28;20880;-77
2024/01/17 01:12:49;;;;;;;14.57;12.17;;;-2.40;77.90;;;;;;6260590;28;20313;-76
2024/01/17 01:15:53;;;;;;;14.73;12.27;;;-2.50;77.90;;;;;;6225621;28;20238;-78
2024/01/17 01:18:57;;;;;;;14.03;12.03;;;-2.50;77.90;;;;;;6233576;28;20231;-76
2024/01/17 01:22:00;;;;;;;15.60;11.83;;;-2.60;78.00;;;;;;6224228;28;20261;-76
2024/01/17 01:25:03;;;;;;;14.20;12.23;;;-2.60;78.00;;;;;;6219337;28;20549;-79
2024/01/17 01:28:06;;;;;;;19.50;12.80;;;-2.60;77.80;;;;;;6228624;28;20238;-78
2024/01/17 01:31:11;;;;;;;14.63;12.53;;;-2.60;77.70;;;;;;6226524;28;20325;-79
2024/01/17 01:34:14;;;;;;;13.70;12.27;;;-2.70;78.00;;;;;;6236189;28;20238;-79
2024/01/17 01:37:19;;;;;;;13.20;11.97;;;-2.70;77.80;;;;;;6223643;28;20303;-78
2024/01/17 01:40:22;;;;;;;15.10;12.80;;;-2.70;77.70;;;;;;6224161;28;20246;-78
2024/01/17 01:43:26;;;;;;;15.83;12.10;;;-2.70;77.80;;;;;;6237057;28;20781;-78
2024/01/17 01:46:32;;;;;;;13.37;11.70;;;-2.70;77.80;;;;;;6230257;28;20273;-78
2024/01/17 01:49:37;;;;;;;14.27;12.23;;;-2.70;77.50;;;;;;6222380;28;20256;-78
2024/01/17 01:52:42;;;;;;;14.13;11.63;;;-2.70;77.30;;;;;;6229310;28;20238;-78
2024/01/17 01:55:47;;;;;;;13.20;11.80;;;-2.60;77.20;;;;;;6239211;28;20237;-78
2024/01/17 01:58:52;;;;;;;14.77;12.13;;;-2.60;77.20;;;;;;6259421;28;20304;-78
2024/01/17 02:01:56;;;;;;;14.60;11.87;;;-2.80;77.40;;;;;;6249113;28;20741;-79
2024/01/17 02:05:02;;;;;;;15.47;12.57;;;-2.70;77.20;;;;;;6254034;28;20238;-78
2024/01/17 02:08:06;;;;;;;13.87;12.37;;;-2.90;77.60;;;;;;6249439;28;20227;-78
2024/01/17 02:11:09;;;;;;;14.37;12.87;;;-3.00;77.80;;;;;;6255849;28;20745;-78
2024/01/17 02:14:16;;;;;;;14.13;12.37;;;-3.00;77.90;;;;;;6251797;28;20245;-77
2024/01/17 02:17:22;;;;;;;14.63;12.20;;;-2.90;77.80;;;;;;6240136;28;20234;-78
2024/01/17 02:20:26;;;;;;;14.23;12.23;;;-3.00;77.90;;;;;;6245066;28;20238;-78
2024/01/17 02:23:30;;;;;;;13.93;11.87;;;-2.90;77.60;;;;;;6247853;28;20233;-80
2024/01/17 02:26:34;;;;;;;13.37;12.00;;;-2.90;77.30;;;;;;6253370;28;20275;-78
2024/01/17 02:29:37;;;;;;;13.53;12.13;;;-3.00;77.50;;;;;;6252691;28;20240;-78
2024/01/17 02:32:41;;;;;;;13.87;12.43;;;-3.00;77.40;;;;;;6252650;28;20235;-78
2024/01/17 02:35:45;;;;;;;16.30;12.73;;;-3.10;77.50;;;;;;6251611;28;20240;-77
2024/01/17 02:38:48;;;;;;;17.57;12.37;;;-3.10;77.60;;;;;;6241396;28;20584;-76
2024/01/17 02:41:52;;;;;;;13.70;12.27;;;-3.10;77.60;;;;;;6253879;28;20241;-77
2024/01/17 02:44:56;;;;;;;14.90;11.87;;;-3.10;77.50;;;;;;6248513;28;20226;-80
2024/01/17 02:47:59;;;;;;;12.97;11.63;;;-3.10;77.50;;;;;;6263310;28;20391;-78
2024/01/17 02:51:03;;;;;;;15.70;12.07;;;-3.10;77.50;;;;;;6253486;28;20240;-79
2024/01/17 02:54:06;;;;;;;13.97;12.17;;;-3.20;77.90;;;;;;6241411;28;20241;-78
2024/01/17 02:57:10;;;;;;;16.47;12.30;;;-3.10;77.70;;;;;;6256506;28;20238;-78
2024/01/17 03:00:14;;;;;;;14.37;12.40;;;-3.00;77.20;;;;;;6260533;28;20310;-78
2024/01/17 03:03:17;;;;;;;14.30;11.93;;;-3.00;77.10;;;;;;6257105;28;20237;-78
2024/01/17 03:06:20;;;;;;;16.97;12.87;;;-2.90;76.90;;;;;;6257754;28;20241;-78
2024/01/17 03:09:23;;;;;;;15.60;12.00;;;-3.00;76.80;;;;;;6264863;28;20237;-78
2024/01/17 03:12:28;;;;;;;12.67;11.37;;;-3.00;76.80;;;;;;6263829;28;20356;-78
2024/01/17 03:15:31;;;;;;;12.93;11.43;;;-3.10;76.90;;;;;;6243514;28;20238;-76
2024/01/17 03:18:34;;;;;;;13.00;11.63;;;-3.10;77.00;;;;;;6263073;28;20241;-77
2024/01/17 03:21:44;;;;;;;15.03;12.50;;;-3.20;77.10;;;;;;6248592;28;20237;-78
2024/01/17 03:24:47;;;;;;;15.50;12.80;;;-3.20;77.20;;;;;;6249053;28;20282;-76
2024/01/17 03:27:54;;;;;;;15.93;12.87;;;-3.20;77.50;;;;;;6264450;28;20226;-79
2024/01/17 03:30:57;;;;;;;13.57;12.20;;;-3.30;77.50;;;;;;6248273;28;20226;-78
2024/01/17 03:34:00;;;;;;;17.90;13.20;;;-3.30;77.50;;;;;;6251018;28;20230;-79
2024/01/17 03:37:04;;;;;;;14.77;12.53;;;-3.20;77.50;;;;;;6253936;28;20242;-77
2024/01/17 03:40:12;;;;;;;16.27;12.43;;;-3.40;77.70;;;;;;6263539;28;20278;-78
2024/01/17 03:43:17;;;;;;;18.17;12.63;;;-3.40;77.80;;;;;;6260637;28;20253;-79
2024/01/17 03:46:20;;;;;;;14.70;13.30;;;-3.30;77.60;;;;;;6254199;28;20288;-78
2024/01/17 03:49:23;;;;;;;18.73;14.53;;;-3.50;77.70;;;;;;6250208;28;20291;-79
2024/01/17 03:52:26;;;;;;;17.67;13.23;;;-3.40;77.50;;;;;;6240570;28;20242;-79
2024/01/17 03:55:29;;;;;;;17.23;12.80;;;-3.40;77.60;;;;;;6261757;28;20383;-78
2024/01/17 03:58:34;;;;;;;14.60;13.10;;;-3.50;77.90;;;;;;6263733;28;20908;-80
2024/01/17 04:01:43;;;;;;;17.27;12.90;;;-3.50;77.60;;;;;;6256401;28;20250;-78
2024/01/17 04:04:47;;;;;;;16.80;11.50;;;-3.40;77.50;;;;;;6240607;28;20239;-78
2024/01/17 04:07:50;;;;;;;16.47;13.30;;;-3.50;77.40;;;;;;6246822;28;20237;-79
2024/01/17 04:10:53;;;;;;;14.17;12.57;;;-3.50;77.40;;;;;;6248695;28;20242;-78
2024/01/17 04:13:58;;;;;;;15.97;12.13;;;-3.50;77.50;;;;;;6241381;28;20950;-79
2024/01/17 04:17:01;;;;;;;14.93;11.93;;;-3.60;77.60;;;;;;6262757;28;20234;-79
2024/01/17 04:20:06;;;;;;;14.07;12.23;;;-3.60;77.50;;;;;;6257690;28;20353;-78
2024/01/17 04:23:09;;;;;;;15.87;12.07;;;-3.50;77.50;;;;;;6260601;28;20238;-76
2024/01/17 04:26:21;;;;;;;15.00;12.97;;;-3.50;77.30;;;;;;6245763;28;20248;-77
2024/01/17 04:29:27;;;;;;;21.07;14.13;;;-3.40;77.20;;;;;;6263457;28;20239;-77
2024/01/17 04:32:33;;;;;;;15.43;13.43;;;-3.50;77.30;;;;;;6259559;28;20256;-77
2024/01/17 04:35:37;;;;;;;19.13;13.40;;;-3.60;77.50;;;;;;6255402;28;20705;-80
2024/01/17 04:38:40;;;;;;;16.33;13.37;;;-3.60;77.50;;;;;;6253194;28;20227;-77
2024/01/17 04:41:44;;;;;;;13.93;12.47;;;-3.60;77.50;;;;;;6241171;28;20317;-80
2024/01/17 04:44:49;;;;;;;14.37;12.90;;;-3.60;77.90;;;;;;6258380;28;20238;-79
2024/01/17 04:47:52;;;;;;;20.43;13.77;;;-3.60;77.50;;;;;;6248834;28;20234;-78
2024/01/17 04:50:58;;;;;;;18.83;13.60;;;-3.50;77.30;;;;;;6262369;28;20745;-77
2024/01/17 04:54:02;;;;;;;18.67;12.70;;;-3.50;77.10;;;;;;6255160;28;20250;-78
2024/01/17 04:57:05;;;;;;;18.73;13.57;;;-3.50;77.10;;;;;;6262132;28;20282;-79
2024/01/17 05:00:12;;;;;;;14.27;11.80;;;-3.60;77.30;;;;;;6260554;28;20226;-79
2024/01/17 05:03:15;;;;;;;13.47;11.67;;;-3.60;77.30;;;;;;6248096;28;20637;-79
2024/01/17 05:06:19;;;;;;;15.20;11.97;;;-3.60;77.20;;;;;;6257009;28;20233;-77
2024/01/17 05:09:22;;;;;;;16.47;11.80;;;-3.60;77.10;;;;;;6251795;28;20264;-79
2024/01/17 05:12:26;;;;;;;15.30;12.47;;;-3.60;77.10;;;;;;6259959;28;20233;-77
2024/01/17 05:15:30;;;;;;;14.27;12.87;;;-3.60;76.90;;;;;;6251288;28;20736;-78
2024/01/17 05:18:33;;;;;;;13.60;12.20;;;-3.60;77.00;;;;;;6259516;28;20288;-77
2024/01/17 05:21:36;;;;;;;15.67;12.40;;;-3.60;77.00;;;;;;6265106;28;20233;-80
2024/01/17 05:24:40;;;;;;;14.37;12.03;;;-3.60;76.90;;;;;;6255866;28;20357;-79
2024/01/17 05:27:50;;;;;;;12.40;11.20;;;-3.60;76.90;;;;;;6257320;28;20238;-78
2024/01/17 05:30:54;;;;;;;14.53;11.53;;;-3.60;76.70;;;;;;6254027;28;20234;-79
2024/01/17 05:33:58;;;;;;;16.17;11.30;;;-3.60;77.00;;;;;;6249745;28;20242;-78
2024/01/17 05:37:03;;;;;;;14.13;12.30;;;-3.60;76.80;;;;;;6258888;28;20322;-79
2024/01/17 05:40:08;;;;;;;12.53;11.23;;;-3.60;76.80;;;;;;6262013;28;20241;-77
2024/01/17 05:43:38;;;;;;;;;;;;;;;;;;;;;
2024/01/17 05:47:12;;;;;;;15.57;12.13;;;-3.80;76.80;;;;;;6201540;28;20597;-78
2024/01/17 05:50:16;;;;;;;14.53;11.50;;;-3.80;77.00;;;;;;6224233;28;20241;-79
2024/01/17 05:53:19;;;;;;;16.93;11.87;;;-3.80;76.90;;;;;;6249027;28;20233;-79
2024/01/17 05:56:23;;;;;;;18.07;12.17;;;-3.80;76.60;;;;;;6250117;28;20262;-78
2024/01/17 05:59:26;;;;;;;12.73;11.33;;;-3.80;76.80;;;;;;6255685;28;20360;-78
2024/01/17 06:02:31;;;;;;;16.83;11.60;;;-3.90;76.90;;;;;;6261261;28;20227;-78
2024/01/17 06:05:34;;;;;;;14.83;11.93;;;-3.90;76.80;;;;;;6251002;28;20257;-79
2024/01/17 06:08:37;;;;;;;14.30;11.90;;;-3.90;76.80;;;;;;6268096;28;20226;-78
2024/01/17 06:11:41;;;;;;;15.17;13.47;;;-3.90;76.60;;;;;;6261355;28;20229;-77
2024/01/17 06:14:46;;;;;;;14.80;12.63;;;-4.00;76.80;;;;;;6255591;28;20243;-76
2024/01/17 06:17:51;;;;;;;18.43;13.23;;;-4.00;76.90;;;;;;6262153;28;20242;-79
2024/01/17 06:20:55;;;;;;;19.73;13.80;;;-4.00;76.60;;;;;;6251964;28;20238;-79
2024/01/17 06:23:58;;;;;;;20.73;13.00;;;-4.00;76.60;;;;;;6260968;28;20295;-79
2024/01/17 06:27:02;;;;;;;17.63;12.77;;;-4.00;76.70;;;;;;6258460;28;20249;-78
2024/01/17 06:30:09;;;;;;;14.83;13.07;;;-4.00;76.90;;;;;;6257799;28;20847;-76
2024/01/17 06:33:14;;;;;;;16.50;12.73;;;-4.00;76.90;;;;;;6250607;28;20234;-76
2024/01/17 06:36:17;;;;;;;19.17;14.10;;;-4.00;76.50;;;;;;6262303;28;20770;-77
2024/01/17 06:39:20;;;;;;;15.43;13.80;;;-4.00;76.60;;;;;;6255202;28;20234;-77
2024/01/17 06:42:23;;;;;;;17.97;13.83;;;-4.00;76.60;;;;;;6247825;28;20282;-77
2024/01/17 06:45:26;;;;;;;14.33;12.63;;;-4.00;76.20;;;;;;6257240;28;20315;-77
2024/01/17 06:48:31;;;;;;;17.03;13.53;;;-4.00;75.80;;;;;;6251225;28;20230;-77
2024/01/17 06:51:34;;;;;;;15.30;13.10;;;-4.00;76.10;;;;;;6250029;28;20227;-75
2024/01/17 06:54:37;;;;;;;20.03;13.80;;;-4.00;76.00;;;;;;6258999;28;20864;-77
2024/01/17 06:57:40;;;;;;;18.27;13.43;;;-4.00;76.00;;;;;;6244633;28;20329;-77
2024/01/17 07:00:45;;;;;;;15.47;12.33;;;-4.00;76.00;;;;;;6221258;28;20243;-76
2024/01/17 07:03:50;;;;;;;19.70;12.90;;;-4.00;76.00;;;;;;6236985;28;20670;-77
2024/01/17 07:06:53;;;;;;;16.83;13.20;;;-4.00;75.80;;;;;;6259313;28;20221;-76
2024/01/17 07:09:56;;;;;;;19.33;13.37;;;-4.10;75.70;;;;;;6248234;28;20698;-77
2024/01/17 07:12:59;;;;;;;14.37;11.90;;;-4.20;76.00;;;;;;6265236;28;20254;-75
2024/01/17 07:16:03;;;;;;;16.07;12.80;;;-4.00;75.80;;;;;;6248492;28;20238;-77
2024/01/17 07:19:08;;;;;;;14.00;12.40;;;-4.00;75.60;;;;;;6255999;28;20226;-76
2024/01/17 07:22:13;;;;;;;21.40;13.43;;;-4.10;75.50;;;;;;6261089;28;20234;-76
2024/01/17 07:25:16;;;;;;;14.20;12.57;;;-4.10;75.70;;;;;;6263025;28;21007;-76
2024/01/17 07:28:20;;;;;;;17.37;12.90;;;-4.10;75.60;;;;;;6266482;28;20588;-76
2024/01/17 07:31:23;;;;;;;15.90;12.50;;;-4.10;75.60;;;;;;6265011;28;20781;-74
2024/01/17 07:34:27;;;;;;;17.50;12.20;;;-4.10;75.60;;;;;;6261526;28;20276;-76
2024/01/17 07:37:31;;;;;;;15.87;12.53;;;-4.00;75.30;;;;;;6263632;28;20277;-77
2024/01/17 07:40:34;;;;;;;18.33;12.80;;;-4.00;75.40;;;;;;6262301;28;21443;-74
2024/01/17 07:43:37;;;;;;;14.53;11.43;;;-4.10;75.40;;;;;;6264930;28;20298;-77
2024/01/17 07:46:40;;;;;;;14.97;12.77;;;-4.00;75.10;;;;;;6267841;28;20801;-74
2024/01/17 07:49:46;;;;;;;13.00;11.70;;;-4.00;74.90;;;;;;6268920;28;20327;-77
2024/01/17 07:52:50;;;;;;;19.57;12.27;;;-4.00;74.60;;;;;;6267386;28;20233;-76
2024/01/17 07:55:53;;;;;;;13.83;12.40;;;-3.90;74.60;;;;;;6266657;28;20254;-74
2024/01/17 07:58:56;;;;;;;20.40;12.93;;;-3.90;74.40;;;;;;6267562;28;20399;-75
2024/01/17 08:01:59;;;;;;;15.80;12.30;;;-3.80;74.30;;;;;;6265650;28;20275;-75
2024/01/17 08:05:04;;;;;;;14.40;11.60;;;-3.90;74.20;;;;;;6268636;28;20245;-77
2024/01/17 08:08:09;;;;;;;19.03;11.80;;;-3.80;74.40;;;;;;6267147;28;21030;-76
2024/01/17 08:11:12;;;;;;;18.20;12.53;;;-3.60;74.20;;;;;;6265971;28;20255;-77
2024/01/17 08:14:15;;;;;;;18.13;11.47;;;-3.60;73.20;;;;;;6269951;28;20241;-77
2024/01/17 08:17:19;;;;;;;16.03;12.70;;;-3.50;73.20;;;;;;6267058;28;20467;-74
2024/01/17 08:20:23;;;;;;;16.07;11.43;;;-3.40;72.70;;;;;;6268441;28;20272;-78
2024/01/17 08:23:26;;;;;;;12.00;10.70;;;-3.40;72.50;;;;;;6266701;28;20249;-75
2024/01/17 08:26:29;;;;;;;15.57;11.47;;;-3.20;72.60;;;;;;6268308;28;20325;-75
2024/01/17 08:29:32;;;;;;;18.10;11.67;;;-3.20;72.00;;;;;;6265556;28;20874;-75
2024/01/17 08:32:35;;;;;;;16.27;10.53;;;-3.10;71.60;;;;;;6267086;28;20234;-77
2024/01/17 08:35:40;;;;;;;12.97;11.40;;;-3.10;71.30;;;;;;6267543;28;20229;-75
2024/01/17 08:38:44;;;;;;;15.23;11.23;;;-3.00;71.20;;;;;;6265148;28;20241;-75
2024/01/17 08:41:47;;;;;;;14.23;11.03;;;-2.80;70.90;;;;;;6268423;28;20234;-75
2024/01/17 08:44:50;;;;;;;15.13;11.30;;;-2.70;70.70;;;;;;6264264;28;20242;-75
2024/01/17 08:47:54;;;;;;;17.90;11.53;;;-2.60;70.20;;;;;;6266177;28;21919;-75
2024/01/17 08:51:00;;;;;;;16.37;12.13;;;-2.50;70.40;;;;;;6268365;28;20260;-77
2024/01/17 08:54:03;;;;;;;13.27;11.07;;;-2.50;69.90;;;;;;6264646;28;20241;-76
2024/01/17 08:57:06;;;;;;;11.67;10.07;;;-2.40;69.70;;;;;;6266005;28;20259;-75
2024/01/17 09:00:11;;;;;;;19.70;12.07;;;-2.20;69.30;;;;;;6265808;28;20241;-76
2024/01/17 09:03:14;;;;;;;21.47;11.10;;;-2.20;68.60;;;;;;6264689;28;20383;-80
2024/01/17 09:06:19;;;;;;;11.90;10.57;;;-2.10;68.60;;;;;;6268212;28;20916;-78
2024/01/17 09:09:24;;;;;;;14.30;10.80;;;-2.10;68.70;;;;;;6266928;28;20640;-76
2024/01/17 09:12:28;;;;;;;18.87;11.90;;;-2.00;68.40;;;;;;6266574;28;20234;-75
2024/01/17 09:15:31;;;;;;;11.17;10.03;;;-1.90;67.70;;;;;;6266021;28;20233;-75
2024/01/17 09:18:34;;;;;;;15.07;10.33;;;-2.00;67.80;;;;;;6263453;28;21367;-77
2024/01/17 09:21:39;;;;;;;11.40;10.27;;;-2.10;68.00;;;;;;6267343;28;20711;-75
2024/01/17 09:24:42;;;;;;;13.00;10.77;;;-2.00;67.90;;;;;;6264764;28;20294;-75
2024/01/17 09:27:45;;;;;;;12.50;10.00;;;-1.90;67.50;;;;;;6265812;28;20316;-75
2024/01/17 09:30:48;;;;;;;12.93;10.67;;;-1.90;67.60;;;;;;6265366;28;20237;-75
2024/01/17 09:33:52;;;;;;;10.70;9.70;;;-1.80;67.70;;;;;;6264902;28;20244;-74
2024/01/17 09:36:57;;;;;;;11.13;10.00;;;-1.70;67.30;;;;;;6263496;28;20329;-78
2024/01/17 09:40:00;;;;;;;11.87;10.57;;;-1.50;67.20;;;;;;6263398;28;20246;-77
2024/01/17 09:43:04;;;;;;;15.23;11.43;;;-1.50;67.00;;;;;;6266440;28;20265;-77
2024/01/17 09:46:15;;;;;;;15.03;11.57;;;-1.50;67.10;;;;;;6253846;28;20234;-76
2024/01/17 09:49:18;;;;;;;14.20;12.43;;;-1.50;67.10;;;;;;6262053;28;20237;-76
2024/01/17 09:52:24;;;;;;;13.07;10.77;;;-1.50;66.90;;;;;;6264754;28;20242;-76
2024/01/17 09:55:28;;;;;;;12.53;11.27;;;-1.60;66.80;;;;;;6265140;28;20238;-78
2024/01/17 09:58:33;;;;;;;13.10;11.70;;;-1.50;66.80;;;;;;6263980;28;20378;-77
2024/01/17 10:01:37;;;;;;;12.23;10.70;;;-1.60;67.40;;;;;;6265116;28;20268;-77
2024/01/17 10:04:42;;;;;;;15.20;11.93;;;-1.50;67.30;;;;;;6264082;28;20248;-78
2024/01/17 10:07:47;;;;;;;11.90;10.70;;;-1.50;66.90;;;;;;6264511;28;20757;-76
2024/01/17 10:10:50;;;;;;;19.13;12.13;;;-1.50;67.10;;;;;;6263864;28;20376;-76
2024/01/17 10:13:53;;;;;;;14.47;12.37;;;-1.30;66.60;;;;;;6264086;28;20448;-77
2024/01/17 10:16:59;;;;;;;11.87;10.67;;;-1.10;65.90;;;;;;6262412;28;20334;-77
2024/01/17 10:20:02;;;;;;;13.20;11.27;;;-1.20;66.30;;;;;;6265052;28;20245;-77
2024/01/17 10:23:08;;;;;;;13.80;12.07;;;-1.30;66.40;;;;;;6263901;28;20340;-76
2024/01/17 10:26:11;;;;;;;12.53;11.33;;;-1.20;66.50;;;;;;6265101;28;20236;-78
2024/01/17 10:29:15;;;;;;;18.93;11.23;;;-1.10;66.20;;;;;;6265558;28;20257;-77
2024/01/17 10:32:19;;;;;;;13.27;11.70;;;-1.10;65.90;;;;;;6263604;28;20249;-76
2024/01/17 10:35:23;;;;;;;12.80;11.10;;;-1.10;66.00;;;;;;6264312;28;20414;-78
2024/01/17 10:38:32;;;;;;;12.17;10.97;;;-1.30;66.40;;;;;;6264907;28;20635;-77
2024/01/17 10:41:49;;;;;;;13.00;10.90;;;-1.10;66.10;;;;;;6262426;28;20276;-76
2024/01/17 10:44:57;;;;;;;11.80;10.67;;;-1.00;65.80;;;;;;6263252;28;20244;-76
2024/01/17 10:48:00;;;;;;;14.90;11.10;;;-1.00;65.90;;;;;;6254255;28;20230;-77
2024/01/17 10:51:05;;;;;;;11.20;10.07;;;-0.90;65.70;;;;;;6263260;28;20262;-75
2024/01/17 10:54:17;;;;;;;18.07;11.57;;;-0.90;65.20;;;;;;6266158;28;20596;-77
2024/01/17 10:57:21;;;;;;;14.17;11.63;;;-0.70;65.10;;;;;;6259681;28;20433;-78
2024/01/17 11:00:29;;;;;;;14.20;11.73;;;-0.70;65.60;;;;;;6261526;28;20280;-76
2024/01/17 11:03:35;;;;;;;12.30;11.00;;;-0.50;65.40;;;;;;6268809;28;21437;-78
2024/01/17 11:06:39;;;;;;;13.40;12.00;;;-0.40;65.00;;;;;;6268875;28;20245;-76
2024/01/17 11:09:45;;;;;;;15.27;10.63;;;-0.10;64.80;;;;;;6259566;28;20714;-77
2024/01/17 11:12:49;;;;;;;13.37;11.57;;;-0.30;64.40;;;;;;6270649;28;20314;-80
2024/01/17 11:15:53;;;;;;;12.37;11.17;;;-0.10;64.60;;;;;;6269492;28;22154;-79
2024/01/17 11:18:58;;;;;;;15.87;12.10;;;0.00;63.50;;;;;;6270266;28;20234;-78
2024/01/17 11:22:01;;;;;;;12.33;11.00;;;0.00;63.50;;;;;;6271563;28;20741;-76
2024/01/17 11:25:16;;;;;;;13.60;11.57;;;0.30;63.60;;;;;;6271189;28;20345;-78
2024/01/17 11:28:22;;;;;;;15.07;10.90;;;0.50;63.50;;;;;;6270416;28;20711;-78
2024/01/17 11:31:38;;;;;;;12.87;10.67;;;0.60;62.50;;;;;;6270657;28;20245;-79
2024/01/17 11:34:41;;;;;;;11.80;10.57;;;0.70;62.20;;;;;;6269501;28;20714;-76
2024/01/17 11:37:44;;;;;;;11.97;10.37;;;0.50;62.30;;;;;;6272077;28;20813;-76
2024/01/17 11:40:49;;;;;;;13.17;11.47;;;0.40;63.20;;;;;;6269551;28;20326;-76
2024/01/17 11:43:52;;;;;;;13.07;10.43;;;0.40;63.10;;;;;;6265773;28;20464;-75
2024/01/17 11:46:57;;;;;;;12.00;10.80;;;0.50;63.10;;;;;;6267297;28;20242;-77
2024/01/17 11:50:01;;;;;;;13.27;11.67;;;0.50;63.50;;;;;;6266618;28;20233;-76
2024/01/17 11:53:05;;;;;;;14.57;11.90;;;0.60;63.00;;;;;;6266514;28;20329;-77
2024/01/17 11:56:12;;;;;;;13.10;11.60;;;0.80;62.70;;;;;;6268019;28;20245;-76
2024/01/17 11:59:16;;;;;;;12.63;10.70;;;0.80;62.70;;;;;;6267654;28;20242;-78
2024/01/17 12:02:37;;;;;;;13.50;10.93;;;0.90;62.00;;;;;;6243751;28;20262;-77
2024/01/17 12:05:45;;;;;;;13.50;11.23;;;0.80;62.10;;;;;;6221486;28;20239;-76
2024/01/17 12:08:52;;;;;;;12.13;10.97;;;0.40;62.90;;;;;;6220772;28;20269;-76
2024/01/17 12:11:56;;;;;;;15.17;11.37;;;0.50;62.60;;;;;;6218111;28;20247;-78
2024/01/17 12:14:59;;;;;;;13.60;11.33;;;0.50;63.10;;;;;;6209022;28;20246;-79
2024/01/17 12:18:05;;;;;;;18.60;12.57;;;0.50;63.00;;;;;;6218442;28;20296;-76
2024/01/17 12:21:08;;;;;;;18.57;12.63;;;0.60;62.50;;;;;;6220206;28;20606;-78
2024/01/17 12:24:12;;;;;;;16.63;11.87;;;0.40;63.50;;;;;;6220433;28;20293;-77
2024/01/17 12:27:17;;;;;;;14.03;11.50;;;0.60;63.70;;;;;;6217639;28;20775;-77
2024/01/17 12:30:20;;;;;;;12.93;11.57;;;0.70;62.80;;;;;;6219069;28;20239;-78
2024/01/17 12:33:24;;;;;;;12.97;11.63;;;0.70;62.40;;;;;;6215614;28;20246;-76
2024/01/17 12:36:29;;;;;;;12.67;11.43;;;0.70;62.40;;;;;;6219873;28;20243;-78
2024/01/17 12:39:36;;;;;;;15.03;11.70;;;0.60;62.60;;;;;;6222370;28;20420;-78
2024/01/17 12:42:41;;;;;;;12.07;10.83;;;0.60;63.00;;;;;;6217731;28;20252;-75
2024/01/17 12:45:45;;;;;;;14.23;11.17;;;0.80;62.50;;;;;;6220294;28;20262;-75
2024/01/17 12:48:56;;;;;;;15.57;10.93;;;0.30;63.20;;;;;;6217618;28;20243;-75
2024/01/17 12:52:00;;;;;;;16.50;12.23;;;0.20;64.10;;;;;;6220199;28;20785;-76
2024/01/17 12:55:04;;;;;;;13.37;11.43;;;0.40;64.00;;;;;;6217067;28;20336;-75
2024/01/17 12:58:11;;;;;;;13.43;11.37;;;0.40;64.10;;;;;;6217977;28;20235;-76
2024/01/17 13:01:14;;;;;;;12.07;10.87;;;0.20;64.30;;;;;;6216961;28;21502;-78
2024/01/17 13:04:18;;;;;;;14.50;11.27;;;0.40;64.30;;;;;;6215634;28;20746;-76
2024/01/17 13:07:25;;;;;;;14.70;11.60;;;0.50;64.10;;;;;;6220199;28;20246;-77
2024/01/17 13:10:34;;;;;;;12.00;10.90;;;0.60;63.80;;;;;;6218635;28;20878;-77
2024/01/17 13:13:38;;;;;;;11.47;10.27;;;0.70;63.40;;;;;;6215514;28;20247;-76
2024/01/17 13:16:45;;;;;;;11.87;10.37;;;0.70;62.70;;;;;;6217807;28;20370;-75
2024/01/17 13:19:49;;;;;;;11.30;10.17;;;0.60;62.50;;;;;;6219815;28;20297;-77
2024/01/17 13:22:55;;;;;;;13.37;10.40;;;0.20;63.60;;;;;;6218674;28;20238;-77
2024/01/17 13:25:59;;;;;;;12.57;11.07;;;0.20;63.80;;;;;;6218906;28;20329;-76
2024/01/17 13:29:04;;;;;;;13.93;12.23;;;0.00;64.60;;;;;;6216555;28;20619;-75
2024/01/17 13:32:07;;;;;;;17.77;11.40;;;0.00;64.90;;;;;;6218470;28;20789;-76
2024/01/17 13:35:10;;;;;;;12.77;11.40;;;0.00;65.40;;;;;;6218331;28;20267;-77
2024/01/17 13:38:14;;;;;;;11.47;10.33;;;0.00;65.10;;;;;;6221936;28;20245;-76
2024/01/17 13:41:17;;;;;;;13.00;10.30;;;0.20;64.10;;;;;;6218670;28;20254;-75
2024/01/17 13:44:23;;;;;;;11.53;10.47;;;0.20;63.90;;;;;;6216452;28;20298;-76
2024/01/17 13:47:26;;;;;;;12.10;10.90;;;0.20;64.00;;;;;;6223710;28;20252;-75
2024/01/17 13:50:30;;;;;;;13.00;10.70;;;0.00;64.50;;;;;;6218617;28;20235;-76
2024/01/17 13:53:36;;;;;;;13.00;10.93;;;0.00;65.00;;;;;;6220753;28;21803;-76
2024/01/17 13:56:39;;;;;;;17.53;10.83;;;0.00;65.00;;;;;;6265597;28;20234;-76
2024/01/17 13:59:44;;;;;;;14.17;9.97;;;-0.10;65.60;;;;;;6254809;28;20230;-78
2024/01/17 14:02:47;;;;;;;12.30;10.27;;;0.00;65.80;;;;;;6264543;28;20237;-76
2024/01/17 14:05:50;;;;;;;11.67;10.63;;;0.00;65.80;;;;;;6265715;28;20323;-77
2024/01/17 14:08:55;;;;;;;12.03;9.93;;;0.00;65.60;;;;;;6266504;28;20241;-76
2024/01/17 14:11:58;;;;;;;12.67;11.20;;;-0.10;65.80;;;;;;6265605;28;20255;-77
2024/01/17 14:15:04;;;;;;;11.90;10.67;;;-0.10;65.70;;;;;;6263985;28;20240;-76
2024/01/17 14:18:08;;;;;;;13.93;11.10;;;-0.10;66.10;;;;;;6269375;28;20827;-76
2024/01/17 14:21:11;;;;;;;11.87;10.77;;;-0.10;66.20;;;;;;6266207;28;20324;-79
2024/01/17 14:24:14;;;;;;;12.47;10.27;;;-0.10;65.80;;;;;;6267579;28;20776;-76
2024/01/17 14:27:18;;;;;;;16.13;10.73;;;-0.20;66.10;;;;;;6266343;28;20249;-78
2024/01/17 14:30:22;;;;;;;21.07;11.20;;;-0.30;66.60;;;;;;6264489;28;21186;-77
2024/01/17 14:33:26;;;;;;;12.87;11.60;;;-0.40;66.60;;;;;;6265919;28;20278;-76
2024/01/17 14:36:29;;;;;;;11.63;10.43;;;-0.30;66.60;;;;;;6270604;28;20237;-79
2024/01/17 14:39:32;;;;;;;11.50;10.13;;;-0.30;66.10;;;;;;6271045;28;21401;-79
2024/01/17 14:42:35;;;;;;;14.77;11.00;;;-0.30;66.30;;;;;;6259738;28;20751;-76
2024/01/17 14:45:40;;;;;;;14.20;10.83;;;-0.20;66.00;;;;;;6275077;28;20237;-75
2024/01/17 14:48:43;;;;;;;11.17;10.17;;;-0.20;66.00;;;;;;6267997;28;20237;-78
2024/01/17 14:51:46;;;;;;;14.00;10.23;;;-0.30;65.90;;;;;;6269845;28;20260;-75
2024/01/17 14:54:49;;;;;;;11.47;10.20;;;-0.20;66.00;;;;;;6268569;28;20245;-78
2024/01/17 14:57:52;;;;;;;13.87;11.33;;;-0.30;66.30;;;;;;6268554;28;20260;-77
2024/01/17 15:00:58;;;;;;;14.83;11.90;;;-0.40;66.70;;;;;;6262676;28;20603;-78
2024/01/17 15:04:02;;;;;;;13.03;11.83;;;-0.40;67.00;;;;;;6277920;28;20244;-76
2024/01/17 15:07:05;;;;;;;13.03;11.20;;;-0.40;67.10;;;;;;6267490;28;20608;-78
2024/01/17 15:10:11;;;;;;;13.60;12.17;;;-0.40;67.30;;;;;;6267083;28;20245;-75
2024/01/17 15:13:14;;;;;;;13.33;11.37;;;-0.40;67.40;;;;;;6267213;28;20257;-76
2024/01/17 15:16:22;;;;;;;14.37;11.47;;;-0.40;67.60;;;;;;6268746;28;20264;-78
2024/01/17 15:19:25;;;;;;;13.17;11.57;;;-0.40;67.60;;;;;;6268739;28;20229;-78
2024/01/17 15:22:30;;;;;;;12.97;11.60;;;-0.50;67.70;;;;;;6268636;28;20242;-77
2024/01/17 15:25:33;;;;;;;14.43;12.20;;;-0.60;68.20;;;;;;6259236;28;20311;-75
2024/01/17 15:28:36;;;;;;;13.50;11.83;;;-0.60;68.60;;;;;;6269034;28;20897;-77
2024/01/17 15:31:41;;;;;;;13.03;11.67;;;-0.70;68.40;;;;;;6267271;28;20384;-75
2024/01/17 15:34:44;;;;;;;14.93;12.13;;;-0.70;68.60;;;;;;6267212;28;20376;-75
2024/01/17 15:37:48;;;;;;;13.43;12.00;;;-0.70;68.60;;;;;;6268488;28;20249;-76
2024/01/17 15:40:58;;;;;;;13.57;12.20;;;-0.70;68.80;;;;;;6266396;28;20260;-77